Hlavní strana
METAR-TAF:

METAR-TAF

Letiště :

Curaçao, Nizozemské Antily

zeměpisná šířka: 12-12N, zeměpisná délka: 068-58W, výška: 9 m

Aktuální stav počasí

Zpráva byla vytvořena před 45 minutami, v 08:00 UTC
Východojihovýchodní vítr 13 kt
Teplota 27°C
Vlhkost vzduchu 84%
Tlak 1011 hPa
Viditelnost 10 km a více
Polojasno ve výšce 1600 ft

METAR: TNCC 280800Z 11013KT 9999 SCT016 27/24 Q1011 NOSIG

Čas: 04:45 (08:45 UTC)

Předpověď počasí

Zpráva byla vytvořena před 3 hodinami a 30 minutami, v 05:15 UTC
Předpověď platná od 28 v 06 UTC do 29 v 06 UTC
Východojihovýchodní vítr 12 kt
Viditelnost 10 km a více
Polojasno ve výšce 2000 ft
Dočasný
od 28 v 06 UTC do 28 v 12 UTC
Oblačno až skoro zataženo ve výšce 1500 ft

TAF: TNCC 280515Z 2806/2906 11012KT 9999 SCT020 TEMPO 2806/2812 BKN015

Stav a předpovědi počasí z více než 4 000 letišť (zprávy METAR a TAF).

Červené a žluté tečky na mapě představují dostupné meteorologické stanice.

Když kurzor umístíte na tečku, zobrazí se název stanice.

Pak kliknutím zobrazíte stav a předpověď počasí.

Chcete-li změnit mapu, kliknutím na zelené tlačítko se znaménkem +mapu přiblížíte, kliknutím na zelené tlačítko se znaménkem – mapu oddálíte a kliknutím na zelené šipky přejdete na sousední mapy.


METAR-TAF: